sensor_id;sensor_type;location;lat;lon;timestamp;pressure;altitude;pressure_sealevel;temperature;humidity
14293;BME280;62290;59.420;17.842;2023-09-19T00:01:42;100047.88;;;22.20;52.67
14293;BME280;62290;59.420;17.842;2023-09-19T00:04:11;100055.94;;;22.20;52.62
14293;BME280;62290;59.420;17.842;2023-09-19T00:06:39;100058.63;;;22.20;52.51
14293;BME280;62290;59.420;17.842;2023-09-19T00:09:08;100037.31;;;22.18;52.57
14293;BME280;62290;59.420;17.842;2023-09-19T00:11:37;100039.97;;;22.18;52.75
14293;BME280;62290;59.420;17.842;2023-09-19T00:14:05;100030.09;;;22.19;52.53
14293;BME280;62290;59.420;17.842;2023-09-19T00:16:35;100029.25;;;22.18;52.74
14293;BME280;62290;59.420;17.842;2023-09-19T00:19:05;100020.34;;;22.18;52.87
14293;BME280;62290;59.420;17.842;2023-09-19T00:21:35;100013.28;;;22.17;52.72
14293;BME280;62290;59.420;17.842;2023-09-19T00:24:04;100011.44;;;22.17;52.92
14293;BME280;62290;59.420;17.842;2023-09-19T00:26:33;100008.75;;;22.17;53.01
14293;BME280;62290;59.420;17.842;2023-09-19T00:29:01;100005.09;;;22.18;52.91
14293;BME280;62290;59.420;17.842;2023-09-19T00:31:35;100005.09;;;22.18;53.06
14293;BME280;62290;59.420;17.842;2023-09-19T00:34:05;99999.72;;;22.18;53.13
14293;BME280;62290;59.420;17.842;2023-09-19T00:36:36;99986.16;;;22.20;52.97
14293;BME280;62290;59.420;17.842;2023-09-19T00:39:05;99987.00;;;22.20;53.01
14293;BME280;62290;59.420;17.842;2023-09-19T00:41:33;99982.63;;;22.19;53.29
14293;BME280;62290;59.420;17.842;2023-09-19T00:44:02;99965.13;;;22.15;53.06
14293;BME280;62290;59.420;17.842;2023-09-19T00:46:31;99951.25;;;22.00;53.23
14293;BME280;62290;59.420;17.842;2023-09-19T00:49:00;99974.28;;;22.22;53.51
14293;BME280;62290;59.420;17.842;2023-09-19T00:51:31;99963.56;;;22.22;53.72
14293;BME280;62290;59.420;17.842;2023-09-19T00:53:59;99961.72;;;22.23;53.75
14293;BME280;62290;59.420;17.842;2023-09-19T00:56:27;99958.19;;;22.22;53.47
14293;BME280;62290;59.420;17.842;2023-09-19T00:58:56;99961.56;;;22.24;53.74
14293;BME280;62290;59.420;17.842;2023-09-19T01:01:25;99956.19;;;22.24;53.54
14293;BME280;62290;59.420;17.842;2023-09-19T01:03:53;99945.63;;;22.23;53.67
14293;BME280;62290;59.420;17.842;2023-09-19T01:06:21;99948.16;;;22.24;53.64
14293;BME280;62290;59.420;17.842;2023-09-19T01:08:50;99939.13;;;22.25;53.84
14293;BME280;62290;59.420;17.842;2023-09-19T01:11:28;99904.53;;;22.12;53.56
14293;BME280;62290;59.420;17.842;2023-09-19T01:14:10;99920.16;;;22.27;53.97
14293;BME280;62290;59.420;17.842;2023-09-19T01:16:46;99916.66;;;22.26;53.98
14293;BME280;62290;59.420;17.842;2023-09-19T01:19:51;99908.63;;;22.26;53.89
14293;BME280;62290;59.420;17.842;2023-09-19T01:22:26;99909.59;;;22.25;54.20
14293;BME280;62290;59.420;17.842;2023-09-19T01:25:27;99889.81;;;22.26;53.99
14293;BME280;62290;59.420;17.842;2023-09-19T01:28:14;99884.47;;;22.26;54.19
14293;BME280;62290;59.420;17.842;2023-09-19T01:30:52;99883.59;;;22.26;54.26
14293;BME280;62290;59.420;17.842;2023-09-19T01:33:24;99869.22;;;22.17;54.39
14293;BME280;62290;59.420;17.842;2023-09-19T01:35:53;99876.25;;;22.28;54.25
14293;BME280;62290;59.420;17.842;2023-09-19T01:38:24;99871.72;;;22.28;54.31
14293;BME280;62290;59.420;17.842;2023-09-19T01:41:02;99866.19;;;22.30;54.42
14293;BME280;62290;59.420;17.842;2023-09-19T01:43:38;99861.69;;;22.30;54.50
14293;BME280;62290;59.420;17.842;2023-09-19T01:46:15;99823.03;;;22.13;54.36
14293;BME280;62290;59.420;17.842;2023-09-19T01:48:49;99857.16;;;22.31;54.66
14293;BME280;62290;59.420;17.842;2023-09-19T01:51:33;99851.66;;;22.32;54.48
14293;BME280;62290;59.420;17.842;2023-09-19T01:54:07;99842.75;;;22.32;54.92
14293;BME280;62290;59.420;17.842;2023-09-19T01:56:42;99837.69;;;22.29;54.62
14293;BME280;62290;59.420;17.842;2023-09-19T01:59:14;99832.16;;;22.30;54.83
14293;BME280;62290;59.420;17.842;2023-09-19T02:01:45;99826.50;;;22.33;54.87
14293;BME280;62290;59.420;17.842;2023-09-19T02:04:14;99816.63;;;22.34;55.03
14293;BME280;62290;59.420;17.842;2023-09-19T02:06:42;99803.19;;;22.34;54.88
14293;BME280;62290;59.420;17.842;2023-09-19T02:09:14;99798.69;;;22.34;55.12
14293;BME280;62290;59.420;17.842;2023-09-19T02:11:42;99802.06;;;22.36;55.11
14293;BME280;62290;59.420;17.842;2023-09-19T02:14:11;99782.41;;;22.36;55.44
14293;BME280;62290;59.420;17.842;2023-09-19T02:16:38;99778.75;;;22.37;55.27
14293;BME280;62290;59.420;17.842;2023-09-19T02:19:08;99765.34;;;22.37;55.37
14293;BME280;62290;59.420;17.842;2023-09-19T02:21:36;99767.00;;;22.38;55.25
14293;BME280;62290;59.420;17.842;2023-09-19T02:24:07;99756.25;;;22.38;55.42
14293;BME280;62290;59.420;17.842;2023-09-19T02:26:37;99745.53;;;22.38;55.28
14293;BME280;62290;59.420;17.842;2023-09-19T02:29:05;99737.47;;;22.38;55.46
14293;BME280;62290;59.420;17.842;2023-09-19T02:31:35;99711.47;;;22.38;55.74
14293;BME280;62290;59.420;17.842;2023-09-19T02:34:03;99720.38;;;22.39;55.66
14293;BME280;62290;59.420;17.842;2023-09-19T02:36:35;99713.19;;;22.39;55.88
14293;BME280;62290;59.420;17.842;2023-09-19T02:39:03;99711.31;;;22.40;55.57
14293;BME280;62290;59.420;17.842;2023-09-19T02:41:35;99699.75;;;22.39;55.65
14293;BME280;62290;59.420;17.842;2023-09-19T02:44:04;99695.38;;;22.38;55.65
14293;BME280;62290;59.420;17.842;2023-09-19T02:46:34;99687.63;;;22.35;55.84
14293;BME280;62290;59.420;17.842;2023-09-19T02:49:04;99682.13;;;22.37;56.05
14293;BME280;62290;59.420;17.842;2023-09-19T02:51:34;99683.78;;;22.38;55.78
14293;BME280;62290;59.420;17.842;2023-09-19T02:54:02;99666.59;;;22.31;56.09
14293;BME280;62290;59.420;17.842;2023-09-19T02:56:31;99666.00;;;22.37;56.09
14293;BME280;62290;59.420;17.842;2023-09-19T02:58:59;99659.50;;;22.39;56.05
14293;BME280;62290;59.420;17.842;2023-09-19T03:01:27;99657.78;;;22.38;55.99
14293;BME280;62290;59.420;17.842;2023-09-19T03:03:56;99647.22;;;22.37;56.19
14293;BME280;62290;59.420;17.842;2023-09-19T03:06:25;99645.53;;;22.36;56.24
14293;BME280;62290;59.420;17.842;2023-09-19T03:08:54;99640.00;;;22.37;56.22
14293;BME280;62290;59.420;17.842;2023-09-19T03:11:23;99635.63;;;22.36;56.21
14293;BME280;62290;59.420;17.842;2023-09-19T03:13:56;99633.81;;;22.37;56.29
14293;BME280;62290;59.420;17.842;2023-09-19T03:16:24;99624.91;;;22.36;56.30
14293;BME280;62290;59.420;17.842;2023-09-19T03:18:56;99605.25;;;22.36;56.15
14293;BME280;62290;59.420;17.842;2023-09-19T03:21:25;99591.84;;;22.36;56.28
14293;BME280;62290;59.420;17.842;2023-09-19T03:23:54;99591.84;;;22.36;56.13
14293;BME280;62290;59.420;17.842;2023-09-19T03:26:23;99582.94;;;22.35;56.48
14293;BME280;62290;59.420;17.842;2023-09-19T03:28:53;99567.84;;;22.34;56.35
14293;BME280;62290;59.420;17.842;2023-09-19T03:31:21;99562.47;;;22.34;56.41
14293;BME280;62290;59.420;17.842;2023-09-19T03:33:50;99550.03;;;22.33;56.44
14293;BME280;62290;59.420;17.842;2023-09-19T03:36:18;99548.22;;;22.34;56.33
14293;BME280;62290;59.420;17.842;2023-09-19T03:38:46;99558.09;;;22.33;56.18
14293;BME280;62290;59.420;17.842;2023-09-19T03:41:15;99554.44;;;22.34;56.36
14293;BME280;62290;59.420;17.842;2023-09-19T03:43:45;99558.09;;;22.33;56.33
14293;BME280;62290;59.420;17.842;2023-09-19T03:46:13;99563.47;;;22.33;56.61
14293;BME280;62290;59.420;17.842;2023-09-19T03:48:42;99553.72;;;22.32;56.64
14293;BME280;62290;59.420;17.842;2023-09-19T03:51:10;99548.34;;;22.32;56.52
14293;BME280;62290;59.420;17.842;2023-09-19T03:53:38;99540.38;;;22.23;56.87
14293;BME280;62290;59.420;17.842;2023-09-19T03:56:07;99544.75;;;22.24;56.50
14293;BME280;62290;59.420;17.842;2023-09-19T03:58:37;99544.81;;;22.32;56.72
14293;BME280;62290;59.420;17.842;2023-09-19T04:01:06;99532.25;;;22.32;56.71
14293;BME280;62290;59.420;17.842;2023-09-19T04:03:35;99535.78;;;22.33;56.49
14293;BME280;62290;59.420;17.842;2023-09-19T04:06:13;99519.47;;;22.26;56.65
14293;BME280;62290;59.420;17.842;2023-09-19T04:08:41;99524.50;;;22.29;56.64
14293;BME280;62290;59.420;17.842;2023-09-19T04:11:11;99521.66;;;22.31;56.51
14293;BME280;62290;59.420;17.842;2023-09-19T04:13:40;99511.78;;;22.31;56.87
14293;BME280;62290;59.420;17.842;2023-09-19T04:16:09;99514.47;;;22.31;56.59
14293;BME280;62290;59.420;17.842;2023-09-19T04:18:37;99509.91;;;22.32;56.74
14293;BME280;62290;59.420;17.842;2023-09-19T04:21:07;99508.25;;;22.31;56.93
14293;BME280;62290;59.420;17.842;2023-09-19T04:23:35;99499.34;;;22.30;56.77
14293;BME280;62290;59.420;17.842;2023-09-19T04:26:03;99504.56;;;22.32;56.87
14293;BME280;62290;59.420;17.842;2023-09-19T04:28:33;99514.47;;;22.31;56.94
14293;BME280;62290;59.420;17.842;2023-09-19T04:31:06;99511.78;;;22.31;56.63
14293;BME280;62290;59.420;17.842;2023-09-19T04:33:37;99511.91;;;22.30;56.80
14293;BME280;62290;59.420;17.842;2023-09-19T04:36:05;99508.38;;;22.29;56.99
14293;BME280;62290;59.420;17.842;2023-09-19T04:38:54;99494.97;;;22.29;56.72
14293;BME280;62290;59.420;17.842;2023-09-19T04:41:22;99485.09;;;22.30;56.79
14293;BME280;62290;59.420;17.842;2023-09-19T04:43:51;99470.69;;;22.31;56.71
14293;BME280;62290;59.420;17.842;2023-09-19T04:46:20;99468.84;;;22.31;56.82
14293;BME280;62290;59.420;17.842;2023-09-19T04:48:48;99452.03;;;22.29;56.85
14293;BME280;62290;59.420;17.842;2023-09-19T04:51:16;99454.72;;;22.29;56.96
14293;BME280;62290;59.420;17.842;2023-09-19T04:53:45;99446.66;;;22.29;57.06
14293;BME280;62290;59.420;17.842;2023-09-19T04:56:13;99439.31;;;22.31;56.95
14293;BME280;62290;59.420;17.842;2023-09-19T04:58:41;99435.78;;;22.31;56.79
14293;BME280;62290;59.420;17.842;2023-09-19T05:01:09;99432.25;;;22.30;56.93
14293;BME280;62290;59.420;17.842;2023-09-19T05:03:40;99436.63;;;22.31;56.92
14293;BME280;62290;59.420;17.842;2023-09-19T05:06:08;99433.09;;;22.31;56.96
14293;BME280;62290;59.420;17.842;2023-09-19T05:08:36;99432.25;;;22.30;57.02
14293;BME280;62290;59.420;17.842;2023-09-19T05:11:05;99429.56;;;22.30;57.13
14293;BME280;62290;59.420;17.842;2023-09-19T05:13:33;99410.63;;;22.32;56.88
14293;BME280;62290;59.420;17.842;2023-09-19T05:16:01;99409.63;;;22.33;56.81
14293;BME280;62290;59.420;17.842;2023-09-19T05:18:29;99408.78;;;22.32;56.80
14293;BME280;62290;59.420;17.842;2023-09-19T05:21:01;99403.09;;;22.35;56.87
14293;BME280;62290;59.420;17.842;2023-09-19T05:23:29;99381.19;;;22.22;56.67
14293;BME280;62290;59.420;17.842;2023-09-19T05:25:57;99405.78;;;22.35;56.75
14293;BME280;62290;59.420;17.842;2023-09-19T05:28:26;99392.38;;;22.35;56.41
14293;BME280;62290;59.420;17.842;2023-09-19T05:30:54;99396.75;;;22.36;56.65
14293;BME280;62290;59.420;17.842;2023-09-19T05:33:22;99392.22;;;22.37;56.69
14293;BME280;62290;59.420;17.842;2023-09-19T05:35:50;99383.63;;;22.33;56.80
14293;BME280;62290;59.420;17.842;2023-09-19T05:38:21;99379.63;;;22.37;56.59
14293;BME280;62290;59.420;17.842;2023-09-19T05:40:50;99387.53;;;22.39;56.72
14293;BME280;62290;59.420;17.842;2023-09-19T05:43:18;99392.91;;;22.39;56.74
14293;BME280;62290;59.420;17.842;2023-09-19T05:45:46;99379.50;;;22.39;56.70
14293;BME280;62290;59.420;17.842;2023-09-19T05:48:15;99369.75;;;22.38;56.96
14293;BME280;62290;59.420;17.842;2023-09-19T05:50:43;99341.97;;;22.21;56.90
14293;BME280;62290;59.420;17.842;2023-09-19T05:53:14;99357.16;;;22.38;57.04
14293;BME280;62290;59.420;17.842;2023-09-19T05:55:44;99358.00;;;22.39;57.12
14293;BME280;62290;59.420;17.842;2023-09-19T05:58:12;99362.53;;;22.38;56.98
14293;BME280;62290;59.420;17.842;2023-09-19T06:00:41;99358.00;;;22.39;57.10
14293;BME280;62290;59.420;17.842;2023-09-19T06:03:13;99364.22;;;22.39;57.21
14293;BME280;62290;59.420;17.842;2023-09-19T06:05:41;99354.31;;;22.40;57.13
14293;BME280;62290;59.420;17.842;2023-09-19T06:08:09;99349.97;;;22.39;57.36
14293;BME280;62290;59.420;17.842;2023-09-19T06:10:37;99350.63;;;22.41;57.39
14293;BME280;62290;59.420;17.842;2023-09-19T06:13:07;99346.78;;;22.43;57.67
14293;BME280;62290;59.420;17.842;2023-09-19T06:15:36;99362.06;;;22.43;57.72
14293;BME280;62290;59.420;17.842;2023-09-19T06:18:10;99366.25;;;22.45;57.65
14293;BME280;62290;59.420;17.842;2023-09-19T06:20:42;99356.53;;;22.44;57.69
14293;BME280;62290;59.420;17.842;2023-09-19T06:23:11;99357.34;;;22.45;57.59
14293;BME280;62290;59.420;17.842;2023-09-19T06:25:39;99353.69;;;22.46;57.53
14293;BME280;62290;59.420;17.842;2023-09-19T06:28:12;99346.47;;;22.46;57.71
14293;BME280;62290;59.420;17.842;2023-09-19T06:30:43;99341.09;;;22.46;57.79
14293;BME280;62290;59.420;17.842;2023-09-19T06:33:11;99342.81;;;22.47;57.88
14293;BME280;62290;59.420;17.842;2023-09-19T06:35:44;99307.97;;;22.30;57.84
14293;BME280;62290;59.420;17.842;2023-09-19T06:38:13;99338.25;;;22.48;57.74
14293;BME280;62290;59.420;17.842;2023-09-19T06:40:42;99340.25;;;22.46;57.87
14293;BME280;62290;59.420;17.842;2023-09-19T06:43:11;99336.41;;;22.48;58.18
14293;BME280;62290;59.420;17.842;2023-09-19T06:45:40;99332.88;;;22.48;58.49
14293;BME280;62290;59.420;17.842;2023-09-19T06:48:09;99330.06;;;22.49;58.48
14293;BME280;62290;59.420;17.842;2023-09-19T06:50:38;99325.53;;;22.50;58.53
14293;BME280;62290;59.420;17.842;2023-09-19T06:53:07;99320.97;;;22.50;58.53
14293;BME280;62290;59.420;17.842;2023-09-19T06:55:36;99323.53;;;22.52;58.54
14293;BME280;62290;59.420;17.842;2023-09-19T06:58:04;99318.31;;;22.50;58.50
14293;BME280;62290;59.420;17.842;2023-09-19T07:00:34;99314.47;;;22.53;58.69
14293;BME280;62290;59.420;17.842;2023-09-19T07:03:05;99314.47;;;22.53;58.68
14293;BME280;62290;59.420;17.842;2023-09-19T07:05:35;99318.00;;;22.53;58.57
14293;BME280;62290;59.420;17.842;2023-09-19T07:08:07;99305.41;;;22.54;58.59
14293;BME280;62290;59.420;17.842;2023-09-19T07:10:36;99310.78;;;22.54;58.68
14293;BME280;62290;59.420;17.842;2023-09-19T07:13:05;99310.78;;;22.54;58.55
14293;BME280;62290;59.420;17.842;2023-09-19T07:15:38;99309.78;;;22.55;58.43
14293;BME280;62290;59.420;17.842;2023-09-19T07:18:14;99292.00;;;22.54;58.51
14293;BME280;62290;59.420;17.842;2023-09-19T07:20:44;99299.19;;;22.53;58.57
14293;BME280;62290;59.420;17.842;2023-09-19T07:23:16;99290.16;;;22.54;58.77
14293;BME280;62290;59.420;17.842;2023-09-19T07:25:44;99285.63;;;22.55;58.69
14293;BME280;62290;59.420;17.842;2023-09-19T07:28:13;99278.38;;;22.55;58.86
14293;BME280;62290;59.420;17.842;2023-09-19T07:30:42;99277.41;;;22.56;58.76
14293;BME280;62290;59.420;17.842;2023-09-19T07:33:10;99270.34;;;22.55;58.75
14293;BME280;62290;59.420;17.842;2023-09-19T07:35:39;99254.38;;;22.46;58.99
14293;BME280;62290;59.420;17.842;2023-09-19T07:38:07;99262.28;;;22.55;58.83
14293;BME280;62290;59.420;17.842;2023-09-19T07:40:36;99265.66;;;22.57;58.80
14293;BME280;62290;59.420;17.842;2023-09-19T07:43:04;99259.44;;;22.57;59.04
14293;BME280;62290;59.420;17.842;2023-09-19T07:45:33;99255.75;;;22.58;58.94
14293;BME280;62290;59.420;17.842;2023-09-19T07:48:05;99243.16;;;22.58;58.89
14293;BME280;62290;59.420;17.842;2023-09-19T07:50:40;99241.50;;;22.57;58.96
14293;BME280;62290;59.420;17.842;2023-09-19T07:53:10;99238.66;;;22.59;58.81
14293;BME280;62290;59.420;17.842;2023-09-19T07:55:40;99239.50;;;22.59;58.84
14293;BME280;62290;59.420;17.842;2023-09-19T07:58:09;99244.00;;;22.59;59.08
14293;BME280;62290;59.420;17.842;2023-09-19T08:00:37;99240.34;;;22.60;59.16
14293;BME280;62290;59.420;17.842;2023-09-19T08:03:06;99236.63;;;22.61;59.00
14293;BME280;62290;59.420;17.842;2023-09-19T08:05:44;99233.94;;;22.61;58.96
14293;BME280;62290;59.420;17.842;2023-09-19T08:08:13;99239.31;;;22.61;59.02
14293;BME280;62290;59.420;17.842;2023-09-19T08:10:42;99234.78;;;22.61;59.06
14293;BME280;62290;59.420;17.842;2023-09-19T08:13:12;99242.84;;;22.61;58.94
14293;BME280;62290;59.420;17.842;2023-09-19T08:15:43;99225.78;;;22.62;59.17
14293;BME280;62290;59.420;17.842;2023-09-19T08:18:13;99225.78;;;22.62;59.03
14293;BME280;62290;59.420;17.842;2023-09-19T08:20:42;99226.63;;;22.63;59.11
14293;BME280;62290;59.420;17.842;2023-09-19T08:23:11;99232.97;;;22.62;59.00
14293;BME280;62290;59.420;17.842;2023-09-19T08:25:39;99237.38;;;22.63;59.04
14293;BME280;62290;59.420;17.842;2023-09-19T08:28:07;99235.50;;;22.63;59.12
14293;BME280;62290;59.420;17.842;2023-09-19T08:30:38;99234.97;;;22.60;59.05
14293;BME280;62290;59.420;17.842;2023-09-19T08:33:07;99240.72;;;22.65;59.04
14293;BME280;62290;59.420;17.842;2023-09-19T08:35:37;99244.25;;;22.65;59.03
14293;BME280;62290;59.420;17.842;2023-09-19T08:38:06;99241.72;;;22.64;59.10
14293;BME280;62290;59.420;17.842;2023-09-19T08:40:37;99232.66;;;22.65;58.96
14293;BME280;62290;59.420;17.842;2023-09-19T08:43:07;99223.94;;;22.63;58.95
14293;BME280;62290;59.420;17.842;2023-09-19T08:45:35;99217.72;;;22.62;59.21
14293;BME280;62290;59.420;17.842;2023-09-19T08:48:16;99220.09;;;22.65;59.02
14293;BME280;62290;59.420;17.842;2023-09-19T08:50:49;99220.09;;;22.65;59.18
14293;BME280;62290;59.420;17.842;2023-09-19T08:53:26;99221.09;;;22.64;59.20
14293;BME280;62290;59.420;17.842;2023-09-19T08:55:56;99211.19;;;22.65;59.09
14293;BME280;62290;59.420;17.842;2023-09-19T08:58:27;99210.34;;;22.64;59.23
14293;BME280;62290;59.420;17.842;2023-09-19T09:01:00;99198.75;;;22.64;59.09
14293;BME280;62290;59.420;17.842;2023-09-19T09:03:32;99205.81;;;22.65;59.10
14293;BME280;62290;59.420;17.842;2023-09-19T09:06:02;99203.97;;;22.65;59.13
14293;BME280;62290;59.420;17.842;2023-09-19T09:08:31;99187.47;;;22.60;59.32
14293;BME280;62290;59.420;17.842;2023-09-19T09:10:59;99190.56;;;22.65;59.22
14293;BME280;62290;59.420;17.842;2023-09-19T09:13:28;99177.78;;;22.67;59.17
14293;BME280;62290;59.420;17.842;2023-09-19T09:15:57;99177.13;;;22.65;59.26
14293;BME280;62290;59.420;17.842;2023-09-19T09:18:26;99177.78;;;22.67;59.05
14293;BME280;62290;59.420;17.842;2023-09-19T09:20:56;99164.63;;;22.56;59.07
14293;BME280;62290;59.420;17.842;2023-09-19T09:23:26;99183.00;;;22.69;59.15
14293;BME280;62290;59.420;17.842;2023-09-19T09:25:56;99182.00;;;22.70;59.10
14293;BME280;62290;59.420;17.842;2023-09-19T09:28:30;99153.38;;;22.53;58.94
14293;BME280;62290;59.420;17.842;2023-09-19T09:31:00;99168.38;;;22.63;59.03
14293;BME280;62290;59.420;17.842;2023-09-19T09:33:29;99173.28;;;22.68;58.97
14293;BME280;62290;59.420;17.842;2023-09-19T09:35:59;99175.78;;;22.69;59.07
14293;BME280;62290;59.420;17.842;2023-09-19T09:38:43;99163.53;;;22.67;58.88
14293;BME280;62290;59.420;17.842;2023-09-19T09:41:12;99164.19;;;22.69;59.16
14293;BME280;62290;59.420;17.842;2023-09-19T09:43:42;99173.75;;;22.71;58.90
14293;BME280;62290;59.420;17.842;2023-09-19T09:46:14;99147.69;;;22.56;59.07
14293;BME280;62290;59.420;17.842;2023-09-19T09:49:01;99174.44;;;22.73;59.04
14293;BME280;62290;59.420;17.842;2023-09-19T09:51:44;99171.06;;;22.71;58.99
14293;BME280;62290;59.420;17.842;2023-09-19T09:54:16;99172.59;;;22.74;58.94
14293;BME280;62290;59.420;17.842;2023-09-19T09:56:55;99159.50;;;22.71;58.85
14293;BME280;62290;59.420;17.842;2023-09-19T09:59:48;99166.22;;;22.75;58.87
14293;BME280;62290;59.420;17.842;2023-09-19T10:02:18;99176.31;;;22.73;58.86
14293;BME280;62290;59.420;17.842;2023-09-19T10:04:52;99162.88;;;22.73;58.70
14293;BME280;62290;59.420;17.842;2023-09-19T10:07:28;99161.72;;;22.76;58.91
14293;BME280;62290;59.420;17.842;2023-09-19T10:10:01;99163.38;;;22.77;58.72
14293;BME280;62290;59.420;17.842;2023-09-19T10:12:42;99160.69;;;22.77;58.97
14293;BME280;62290;59.420;17.842;2023-09-19T10:15:11;99152.63;;;22.77;58.94
14293;BME280;62290;59.420;17.842;2023-09-19T10:17:44;99144.56;;;22.77;58.78
14293;BME280;62290;59.420;17.842;2023-09-19T10:20:13;99138.19;;;22.78;58.80
14293;BME280;62290;59.420;17.842;2023-09-19T10:23:00;99144.41;;;22.78;58.59
14293;BME280;62290;59.420;17.842;2023-09-19T10:25:30;99146.25;;;22.78;58.59
14293;BME280;62290;59.420;17.842;2023-09-19T10:28:00;99147.94;;;22.79;58.64
14293;BME280;62290;59.420;17.842;2023-09-19T10:30:31;99137.22;;;22.79;58.65
14293;BME280;62290;59.420;17.842;2023-09-19T10:33:02;99135.34;;;22.79;58.50
14293;BME280;62290;59.420;17.842;2023-09-19T10:35:32;99128.97;;;22.80;58.41
14293;BME280;62290;59.420;17.842;2023-09-19T10:38:01;99125.44;;;22.80;58.41
14293;BME280;62290;59.420;17.842;2023-09-19T10:40:33;99130.66;;;22.81;58.46
14293;BME280;62290;59.420;17.842;2023-09-19T10:43:04;99129.81;;;22.81;58.44
14293;BME280;62290;59.420;17.842;2023-09-19T10:45:34;99112.00;;;22.71;58.52
14293;BME280;62290;59.420;17.842;2023-09-19T10:48:06;99129.63;;;22.82;58.17
14293;BME280;62290;59.420;17.842;2023-09-19T10:50:36;99136.84;;;22.82;58.06
14293;BME280;62290;59.420;17.842;2023-09-19T10:53:12;99145.75;;;22.82;58.04
14293;BME280;62290;59.420;17.842;2023-09-19T10:55:49;99134.16;;;22.82;57.87
14293;BME280;62290;59.420;17.842;2023-09-19T10:58:26;99130.66;;;22.81;57.81
14293;BME280;62290;59.420;17.842;2023-09-19T11:00:57;99128.97;;;22.80;57.76
14293;BME280;62290;59.420;17.842;2023-09-19T11:03:32;99125.44;;;22.80;57.61
14293;BME280;62290;59.420;17.842;2023-09-19T11:06:02;99121.75;;;22.72;57.69
14293;BME280;62290;59.420;17.842;2023-09-19T11:09:00;99140.56;;;22.81;57.41
14293;BME280;62290;59.420;17.842;2023-09-19T11:11:45;99142.41;;;22.80;57.47
14293;BME280;62290;59.420;17.842;2023-09-19T11:14:30;99147.09;;;22.78;57.33
14293;BME280;62290;59.420;17.842;2023-09-19T11:20:20;99139.06;;;22.78;56.93
14293;BME280;62290;59.420;17.842;2023-09-19T11:23:18;99131.00;;;22.78;56.96
14293;BME280;62290;59.420;17.842;2023-09-19T11:25:49;99128.63;;;22.75;56.79
14293;BME280;62290;59.420;17.842;2023-09-19T11:28:31;99130.81;;;22.80;56.50
14293;BME280;62290;59.420;17.842;2023-09-19T11:34:42;99139.72;;;22.80;56.21
14293;BME280;62290;59.420;17.842;2023-09-19T11:40:29;99144.09;;;22.81;55.96
14293;BME280;62290;59.420;17.842;2023-09-19T11:42:57;99143.41;;;22.79;55.63
14293;BME280;62290;59.420;17.842;2023-09-19T11:48:34;99146.94;;;22.80;55.42
14293;BME280;62290;59.420;17.842;2023-09-19T11:51:17;99145.94;;;22.81;55.32
14293;BME280;62290;59.420;17.842;2023-09-19T11:53:54;99144.25;;;22.80;55.16
14293;BME280;62290;59.420;17.842;2023-09-19T11:56:23;99146.94;;;22.80;54.84
14293;BME280;62290;59.420;17.842;2023-09-19T11:58:53;99145.09;;;22.80;54.60
14293;BME280;62290;59.420;17.842;2023-09-19T12:01:25;99145.94;;;22.81;54.40
14293;BME280;62290;59.420;17.842;2023-09-19T12:03:58;99139.53;;;22.82;54.32
14293;BME280;62290;59.420;17.842;2023-09-19T12:06:27;99132.31;;;22.74;54.14
14293;BME280;62290;59.420;17.842;2023-09-19T12:08:56;99142.06;;;22.83;53.69
14293;BME280;62290;59.420;17.842;2023-09-19T12:11:28;99147.25;;;22.85;53.61
14293;BME280;62290;59.420;17.842;2023-09-19T12:14:00;99137.69;;;22.82;53.58
14293;BME280;62290;59.420;17.842;2023-09-19T12:16:29;99155.31;;;22.85;53.36
14293;BME280;62290;59.420;17.842;2023-09-19T12:19:17;99134.16;;;22.82;52.96
14293;BME280;62290;59.420;17.842;2023-09-19T12:21:55;99143.59;;;22.86;52.92
14293;BME280;62290;59.420;17.842;2023-09-19T12:24:26;99138.22;;;22.86;52.92
14293;BME280;62290;59.420;17.842;2023-09-19T12:27:01;99142.56;;;22.87;52.63
14293;BME280;62290;59.420;17.842;2023-09-19T12:29:32;99143.59;;;22.86;52.36
14293;BME280;62290;59.420;17.842;2023-09-19T12:32:09;99108.81;;;22.68;52.32
14293;BME280;62290;59.420;17.842;2023-09-19T12:34:39;99147.13;;;22.86;52.02
14293;BME280;62290;59.420;17.842;2023-09-19T12:37:10;99133.50;;;22.88;51.99
14293;BME280;62290;59.420;17.842;2023-09-19T12:39:40;99136.19;;;22.88;52.00
14293;BME280;62290;59.420;17.842;2023-09-19T12:42:16;99126.28;;;22.80;51.96
14293;BME280;62290;59.420;17.842;2023-09-19T12:44:46;99126.09;;;22.73;51.58
14293;BME280;62290;59.420;17.842;2023-09-19T12:47:16;99154.00;;;22.89;51.45
14293;BME280;62290;59.420;17.842;2023-09-19T12:50:07;99141.38;;;22.89;51.26
14293;BME280;62290;59.420;17.842;2023-09-19T12:52:42;99141.56;;;22.88;51.12
14293;BME280;62290;59.420;17.842;2023-09-19T12:55:22;99144.44;;;22.86;50.91
14293;BME280;62290;59.420;17.842;2023-09-19T12:57:59;99136.19;;;22.88;50.57
14293;BME280;62290;59.420;17.842;2023-09-19T13:00:33;99133.50;;;22.88;50.60
14293;BME280;62290;59.420;17.842;2023-09-19T13:03:12;99128.13;;;22.88;50.36
14293;BME280;62290;59.420;17.842;2023-09-19T13:05:54;99137.19;;;22.87;50.40
14293;BME280;62290;59.420;17.842;2023-09-19T13:08:26;99117.72;;;22.77;50.12
14293;BME280;62290;59.420;17.842;2023-09-19T13:11:06;99137.19;;;22.87;49.81
14293;BME280;62290;59.420;17.842;2023-09-19T13:13:41;99145.44;;;22.85;49.52
14293;BME280;62290;59.420;17.842;2023-09-19T13:16:16;99119.38;;;22.69;49.51
14293;BME280;62290;59.420;17.842;2023-09-19T13:18:50;99139.22;;;22.85;49.10
14293;BME280;62290;59.420;17.842;2023-09-19T13:21:31;99141.88;;;22.85;49.03
14293;BME280;62290;59.420;17.842;2023-09-19T13:24:20;99147.25;;;22.85;48.85
14293;BME280;62290;59.420;17.842;2023-09-19T13:26:49;99142.91;;;22.84;49.06